createdAt,value
2023-10-10T00:01:34.343Z,10.96
2023-10-10T00:04:01.143Z,10.92
2023-10-10T00:06:27.965Z,10.97
2023-10-10T00:08:54.676Z,11.03
2023-10-10T00:11:23.289Z,10.93
2023-10-10T00:13:50.112Z,11.01
2023-10-10T00:16:18.300Z,11.01
2023-10-10T00:18:45.279Z,11.08
2023-10-10T00:21:12.129Z,11.11
2023-10-10T00:23:39.033Z,11.18
2023-10-10T00:26:06.056Z,11.15
2023-10-10T00:28:32.894Z,11.18
2023-10-10T00:30:59.651Z,11.31
2023-10-10T00:33:27.784Z,11.23
2023-10-10T00:35:54.569Z,11.01
2023-10-10T00:38:21.359Z,11.15
2023-10-10T00:40:48.051Z,11.34
2023-10-10T00:43:14.875Z,11.34
2023-10-10T00:45:41.623Z,11.27
2023-10-10T00:48:08.504Z,11.08
2023-10-10T00:50:37.008Z,11.24
2023-10-10T00:53:04.081Z,11.36
2023-10-10T00:55:30.791Z,11.23
2023-10-10T00:57:57.567Z,11.17
2023-10-10T01:00:24.299Z,11.18
2023-10-10T01:02:51.124Z,11.10
2023-10-10T01:05:18.001Z,11.21
2023-10-10T01:07:46.128Z,10.76
2023-10-10T01:10:12.886Z,10.63
2023-10-10T01:12:39.983Z,10.53
2023-10-10T01:15:07.246Z,10.24
2023-10-10T01:17:34.143Z,10.29
2023-10-10T01:20:03.819Z,10.44
2023-10-10T01:22:32.018Z,10.29
2023-10-10T01:24:58.745Z,9.95
2023-10-10T01:27:25.520Z,10.25
2023-10-10T01:29:52.703Z,10.22
2023-10-10T01:32:19.472Z,10.18
2023-10-10T01:34:46.819Z,10.21
2023-10-10T01:37:13.637Z,10.18
2023-10-10T01:39:47.149Z,10.22
2023-10-10T01:42:14.068Z,10.21
2023-10-10T01:44:40.855Z,9.95
2023-10-10T01:47:07.705Z,9.97
2023-10-10T01:49:34.427Z,10.01
2023-10-10T01:52:01.687Z,9.98
2023-10-10T01:54:28.575Z,9.78
2023-10-10T01:56:56.647Z,10.08
2023-10-10T01:59:23.401Z,9.95
2023-10-10T02:01:50.313Z,9.87
2023-10-10T02:04:17.121Z,9.77
2023-10-10T02:06:43.854Z,9.93
2023-10-10T02:09:10.602Z,10.09
2023-10-10T02:11:37.386Z,10.19
2023-10-10T02:14:05.554Z,10.08
2023-10-10T02:16:32.353Z,10.02
2023-10-10T02:18:59.099Z,10.17
2023-10-10T02:21:25.820Z,10.22
2023-10-10T02:23:52.596Z,10.34
2023-10-10T02:26:19.354Z,10.24
2023-10-10T02:28:46.100Z,10.46
2023-10-10T02:31:15.105Z,10.56
2023-10-10T02:33:41.889Z,10.56
2023-10-10T02:36:08.631Z,10.72
2023-10-10T02:38:35.912Z,10.80
2023-10-10T02:41:04.013Z,10.84
2023-10-10T02:43:30.770Z,11.00
2023-10-10T02:45:57.530Z,10.80
2023-10-10T02:48:25.612Z,10.86
2023-10-10T02:50:52.318Z,10.86
2023-10-10T02:53:19.253Z,10.81
2023-10-10T02:55:46.003Z,10.77
2023-10-10T02:58:12.732Z,10.67
2023-10-10T03:00:39.433Z,10.77
2023-10-10T03:03:06.265Z,10.53
2023-10-10T03:05:34.569Z,10.08
2023-10-10T03:08:01.311Z,10.36
2023-10-10T03:10:28.197Z,10.11
2023-10-10T03:12:54.918Z,10.05
2023-10-10T03:15:21.819Z,10.35
2023-10-10T03:17:49.478Z,10.49
2023-10-10T03:20:16.429Z,10.02
2023-10-10T03:22:44.664Z,9.93
2023-10-10T03:25:11.379Z,9.93
2023-10-10T03:27:38.094Z,9.97
2023-10-10T03:30:05.594Z,10.29
2023-10-10T03:32:32.795Z,9.94
2023-10-10T03:34:59.843Z,9.86
2023-10-10T03:37:26.624Z,9.63
2023-10-10T03:39:54.823Z,9.76
2023-10-10T03:42:22.554Z,9.80
2023-10-10T03:44:49.279Z,9.81
2023-10-10T03:47:16.040Z,9.81
2023-10-10T03:49:42.777Z,9.80
2023-10-10T03:52:09.529Z,9.77
2023-10-10T03:54:36.210Z,9.74
2023-10-10T03:57:04.297Z,9.70
2023-10-10T03:59:31.095Z,9.97
2023-10-10T04:01:57.916Z,9.80
2023-10-10T04:04:24.662Z,9.83
2023-10-10T04:06:51.660Z,9.90
2023-10-10T04:09:18.398Z,9.93
2023-10-10T04:11:45.101Z,9.73
2023-10-10T04:14:13.341Z,9.67
2023-10-10T04:16:40.184Z,9.77
2023-10-10T04:19:06.942Z,9.80
2023-10-10T04:21:33.741Z,9.70
2023-10-10T04:24:00.470Z,9.76
2023-10-10T04:26:27.203Z,9.93
2023-10-10T04:28:54.257Z,10.04
2023-10-10T04:31:22.417Z,9.88
2023-10-10T04:33:49.172Z,9.87
2023-10-10T04:36:15.949Z,9.70
2023-10-10T04:38:42.727Z,9.95
2023-10-10T04:41:13.222Z,9.90
2023-10-10T04:43:39.984Z,9.74
2023-10-10T04:46:06.822Z,9.61
2023-10-10T04:48:34.952Z,9.87
2023-10-10T04:51:01.670Z,10.07
2023-10-10T04:53:28.481Z,10.05
2023-10-10T04:55:55.204Z,10.12
2023-10-10T04:58:21.965Z,10.11
2023-10-10T05:00:48.707Z,10.14
2023-10-10T05:03:15.509Z,10.07
2023-10-10T05:05:43.769Z,10.29
2023-10-10T05:08:10.598Z,10.18
2023-10-10T05:10:39.266Z,10.48
2023-10-10T05:13:06.110Z,10.32
2023-10-10T05:15:32.820Z,10.04
2023-10-10T05:17:59.691Z,10.15
2023-10-10T05:20:26.748Z,10.36
2023-10-10T05:22:54.967Z,10.42
2023-10-10T05:25:21.691Z,10.48
2023-10-10T05:27:48.492Z,10.50
2023-10-10T05:30:15.272Z,10.31
2023-10-10T05:32:42.091Z,10.04
2023-10-10T05:35:09.435Z,10.08
2023-10-10T05:37:36.182Z,10.01
2023-10-10T05:40:04.951Z,10.12
2023-10-10T05:42:31.704Z,10.39
2023-10-10T05:44:58.429Z,10.35
2023-10-10T05:47:25.157Z,10.53
2023-10-10T05:49:51.934Z,10.56
2023-10-10T05:52:18.666Z,10.45
2023-10-10T05:54:45.427Z,10.18
2023-10-10T05:57:13.570Z,10.59
2023-10-10T05:59:40.367Z,10.79
2023-10-10T06:02:07.130Z,11.08
2023-10-10T06:04:33.969Z,10.84
2023-10-10T06:07:00.822Z,10.60
2023-10-10T06:09:27.605Z,10.99
2023-10-10T06:11:54.579Z,10.70
2023-10-10T06:14:22.862Z,10.83
2023-10-10T06:16:49.647Z,10.99
2023-10-10T06:19:16.401Z,11.17
2023-10-10T06:21:43.160Z,11.06
2023-10-10T06:24:09.843Z,10.90
2023-10-10T06:26:36.652Z,11.24
2023-10-10T06:29:03.488Z,11.45
2023-10-10T06:31:31.642Z,11.55
2023-10-10T06:33:58.621Z,12.23
2023-10-10T06:36:25.437Z,11.62
2023-10-10T06:38:52.602Z,11.20
2023-10-10T06:41:19.479Z,11.32
2023-10-10T06:43:46.323Z,12.33
2023-10-10T06:46:13.208Z,12.17
2023-10-10T06:48:41.382Z,12.20
2023-10-10T06:51:08.154Z,13.16
2023-10-10T06:53:34.894Z,12.76
2023-10-10T06:56:04.787Z,12.42
2023-10-10T06:58:31.578Z,12.82
2023-10-10T07:00:58.363Z,12.45
2023-10-10T07:03:25.138Z,12.61
2023-10-10T07:05:53.399Z,12.21
2023-10-10T07:08:20.232Z,12.36
2023-10-10T07:10:47.112Z,12.67
2023-10-10T07:13:13.826Z,12.45
2023-10-10T07:15:40.680Z,12.41
2023-10-10T07:18:07.638Z,11.93
2023-10-10T07:20:34.645Z,12.54
2023-10-10T07:23:02.804Z,12.45
2023-10-10T07:25:29.625Z,12.49
2023-10-10T07:27:56.346Z,12.59
2023-10-10T07:30:23.095Z,12.01
2023-10-10T07:32:50.780Z,11.93
2023-10-10T07:35:17.820Z,11.69
2023-10-10T07:37:44.932Z,12.10
2023-10-10T07:40:14.187Z,11.96
2023-10-10T07:42:40.889Z,11.82
2023-10-10T07:45:08.481Z,11.94
2023-10-10T07:47:35.289Z,11.94
2023-10-10T07:50:02.109Z,11.86
2023-10-10T07:52:28.799Z,11.92
2023-10-10T07:54:55.597Z,12.07
2023-10-10T07:57:25.240Z,12.17
2023-10-10T07:59:51.970Z,12.28
2023-10-10T08:02:18.757Z,12.89
2023-10-10T08:04:45.513Z,12.30
2023-10-10T08:07:12.238Z,12.20
2023-10-10T08:09:38.962Z,11.97
2023-10-10T08:12:05.951Z,11.96
2023-10-10T08:14:34.125Z,12.57
2023-10-10T08:17:00.934Z,12.38
2023-10-10T08:19:27.784Z,12.38
2023-10-10T08:21:54.518Z,12.65
2023-10-10T08:24:21.943Z,12.45
2023-10-10T08:26:48.742Z,12.79
2023-10-10T08:29:15.517Z,12.58
2023-10-10T08:31:43.736Z,13.47
2023-10-10T08:34:10.535Z,13.71
2023-10-10T08:36:37.461Z,14.63
2023-10-10T08:39:04.539Z,15.50
2023-10-10T08:41:32.405Z,15.28
2023-10-10T08:43:59.218Z,16.00
2023-10-10T08:46:26.913Z,15.49
2023-10-10T08:48:55.108Z,15.26
2023-10-10T08:51:21.894Z,14.77
2023-10-10T08:53:48.784Z,15.49
2023-10-10T08:56:15.626Z,16.04
2023-10-10T08:58:42.669Z,15.97
2023-10-10T09:01:09.751Z,14.80
2023-10-10T09:03:36.830Z,15.90
2023-10-10T09:06:18.794Z,14.60
2023-10-10T09:08:45.701Z,15.28
2023-10-10T09:11:12.677Z,15.89
2023-10-10T09:13:48.876Z,15.93
2023-10-10T09:16:15.700Z,15.38
2023-10-10T09:18:42.469Z,16.13
2023-10-10T09:21:12.470Z,16.10
2023-10-10T09:23:40.797Z,15.40
2023-10-10T09:26:11.901Z,14.39
2023-10-10T09:28:44.873Z,14.18
2023-10-10T09:31:11.681Z,15.80
2023-10-10T09:33:40.340Z,16.00
2023-10-10T09:36:07.240Z,15.02
2023-10-10T09:38:34.028Z,14.51
2023-10-10T09:41:03.094Z,14.76
2023-10-10T09:43:29.867Z,14.57
2023-10-10T09:45:57.081Z,14.88
2023-10-10T09:48:23.909Z,14.97
2023-10-10T09:50:50.865Z,15.25
2023-10-10T09:53:17.676Z,15.80
2023-10-10T09:55:44.531Z,14.26
2023-10-10T09:58:12.667Z,14.56
2023-10-10T10:00:39.487Z,15.45
2023-10-10T10:03:07.035Z,15.83
2023-10-10T10:05:33.967Z,15.71
2023-10-10T10:08:03.791Z,15.63
2023-10-10T10:10:37.372Z,14.19
2023-10-10T10:13:21.420Z,14.21
2023-10-10T10:15:59.599Z,14.66
2023-10-10T10:18:26.326Z,15.15
2023-10-10T10:20:53.122Z,14.80
2023-10-10T10:23:19.996Z,15.36
2023-10-10T10:25:52.547Z,14.70
2023-10-10T10:28:21.298Z,16.31
2023-10-10T10:30:51.201Z,16.86
2023-10-10T10:33:20.179Z,16.53
2023-10-10T10:36:03.004Z,17.48
2023-10-10T10:38:29.881Z,17.17
2023-10-10T10:40:56.678Z,17.03
2023-10-10T10:43:24.790Z,18.30
2023-10-10T10:45:51.611Z,19.39
2023-10-10T10:48:18.724Z,19.13
2023-10-10T10:50:45.646Z,19.74
2023-10-10T10:53:16.497Z,21.42
2023-10-10T10:55:43.245Z,22.06
2023-10-10T10:58:10.123Z,21.25
2023-10-10T11:00:40.702Z,20.42
2023-10-10T11:03:07.622Z,19.57
2023-10-10T11:05:34.445Z,20.60
2023-10-10T11:08:01.254Z,21.17
2023-10-10T11:10:27.922Z,18.37
2023-10-10T11:12:54.655Z,16.94
2023-10-10T11:15:21.464Z,17.81
2023-10-10T11:17:53.124Z,18.60
2023-10-10T11:20:20.050Z,17.40
2023-10-10T11:22:46.904Z,18.05
2023-10-10T11:25:13.824Z,16.99
2023-10-10T11:27:40.625Z,16.36
2023-10-10T11:30:08.505Z,15.46
2023-10-10T11:32:38.330Z,15.59
2023-10-10T11:35:07.848Z,15.43
2023-10-10T11:37:34.587Z,14.94
2023-10-10T11:40:10.724Z,15.24
2023-10-10T11:42:37.499Z,15.05
2023-10-10T11:45:05.026Z,16.22
2023-10-10T11:47:31.947Z,17.45
2023-10-10T11:50:02.544Z,16.89
2023-10-10T11:52:31.025Z,17.34
2023-10-10T11:54:57.820Z,17.74
2023-10-10T11:57:24.570Z,17.78
2023-10-10T11:59:51.332Z,16.84
2023-10-10T12:02:18.219Z,17.31
2023-10-10T12:04:45.092Z,18.00
2023-10-10T12:07:11.802Z,18.88
2023-10-10T12:09:40.061Z,18.20
2023-10-10T12:12:06.868Z,18.05
2023-10-10T12:14:33.981Z,17.17
2023-10-10T12:17:01.152Z,18.02
2023-10-10T12:19:27.993Z,19.27
2023-10-10T12:21:55.115Z,18.38
2023-10-10T12:24:21.906Z,17.57
2023-10-10T12:26:50.097Z,18.54
2023-10-10T12:29:16.856Z,20.11
2023-10-10T12:31:43.690Z,19.67
2023-10-10T12:34:10.580Z,19.51
2023-10-10T12:36:37.368Z,19.60
2023-10-10T12:39:04.417Z,20.76
2023-10-10T12:41:31.236Z,23.26
2023-10-10T12:43:59.426Z,23.24
2023-10-10T12:46:26.348Z,23.19
2023-10-10T12:48:53.697Z,21.28
2023-10-10T12:51:20.526Z,21.08
2023-10-10T12:53:47.365Z,21.41
2023-10-10T12:56:14.081Z,22.36
2023-10-10T12:58:40.808Z,20.66
2023-10-10T13:01:09.038Z,20.60
2023-10-10T13:03:35.927Z,21.10
2023-10-10T13:06:03.384Z,19.37
2023-10-10T13:08:31.158Z,21.53
2023-10-10T13:10:57.927Z,23.17
2023-10-10T13:13:24.743Z,22.73
2023-10-10T13:15:51.542Z,22.38
2023-10-10T13:18:19.849Z,23.61
2023-10-10T13:20:46.745Z,24.02
2023-10-10T13:23:13.743Z,23.98
2023-10-10T13:25:40.481Z,22.57
2023-10-10T13:28:07.181Z,21.17
2023-10-10T13:30:33.891Z,22.64
2023-10-10T13:33:00.779Z,22.71
2023-10-10T13:35:28.974Z,23.20
2023-10-10T13:37:55.797Z,21.14
2023-10-10T13:40:22.669Z,20.59
2023-10-10T13:42:49.613Z,22.06
2023-10-10T13:45:16.554Z,22.01
2023-10-10T13:47:43.323Z,22.92
2023-10-10T13:50:10.673Z,23.77
2023-10-10T13:52:38.828Z,24.04
2023-10-10T13:55:06.431Z,23.68
2023-10-10T13:57:33.163Z,23.46
2023-10-10T14:00:00.224Z,24.29
2023-10-10T14:02:27.327Z,24.28
2023-10-10T14:04:54.342Z,22.86
2023-10-10T14:07:21.142Z,22.76
2023-10-10T14:10:02.150Z,23.02
2023-10-10T14:12:29.441Z,21.51
2023-10-10T14:14:56.217Z,20.98
2023-10-10T14:17:22.986Z,21.01
2023-10-10T14:19:49.786Z,20.49
2023-10-10T14:22:16.528Z,21.34
2023-10-10T14:24:43.265Z,20.97
2023-10-10T14:27:11.534Z,21.12
2023-10-10T14:29:38.315Z,21.32
2023-10-10T14:32:05.061Z,21.97
2023-10-10T14:34:31.812Z,21.66
2023-10-10T14:36:58.501Z,21.45
2023-10-10T14:39:25.242Z,21.32
2023-10-10T14:41:52.078Z,21.08
2023-10-10T14:44:20.371Z,21.11
2023-10-10T14:46:47.174Z,20.60
2023-10-10T14:49:13.995Z,20.04
2023-10-10T14:51:40.727Z,19.63
2023-10-10T14:54:08.727Z,20.12
2023-10-10T14:56:36.004Z,19.85
2023-10-10T14:59:03.707Z,19.57
2023-10-10T15:01:31.949Z,19.18
2023-10-10T15:03:58.755Z,18.44
2023-10-10T15:06:25.544Z,18.20
2023-10-10T15:08:52.348Z,18.14
2023-10-10T15:11:19.200Z,18.40
2023-10-10T15:13:45.975Z,18.06
2023-10-10T15:16:12.750Z,17.55
2023-10-10T15:18:43.200Z,17.03
2023-10-10T15:21:10.249Z,16.83
2023-10-10T15:23:36.991Z,16.73
2023-10-10T15:26:03.837Z,16.40
2023-10-10T15:28:30.580Z,16.05
2023-10-10T15:30:57.414Z,15.73
2023-10-10T15:33:24.393Z,15.45
2023-10-10T15:35:52.655Z,15.26
2023-10-10T15:38:19.455Z,15.09
2023-10-10T15:40:47.005Z,15.02
2023-10-10T15:43:29.866Z,14.84
2023-10-10T15:45:59.365Z,14.66
2023-10-10T15:48:26.156Z,14.53
2023-10-10T15:50:54.937Z,14.37
2023-10-10T15:53:21.859Z,14.02
2023-10-10T15:55:51.131Z,13.78
2023-10-10T15:58:17.847Z,13.60
2023-10-10T16:00:44.621Z,13.55
2023-10-10T16:03:11.653Z,13.55
2023-10-10T16:05:39.464Z,13.28
2023-10-10T16:08:09.739Z,13.07
2023-10-10T16:10:38.951Z,12.89
2023-10-10T16:13:08.267Z,12.81
2023-10-10T16:15:35.060Z,12.48
2023-10-10T16:18:02.011Z,12.21
2023-10-10T16:20:28.990Z,11.99
2023-10-10T16:22:55.852Z,11.82
2023-10-10T16:25:23.929Z,11.75
2023-10-10T16:27:50.730Z,11.59
2023-10-10T16:30:17.701Z,11.36
2023-10-10T16:32:44.544Z,11.52
2023-10-10T16:35:11.407Z,11.46
2023-10-10T16:37:38.284Z,11.35
2023-10-10T16:40:06.426Z,11.23
2023-10-10T16:42:34.547Z,11.28
2023-10-10T16:45:01.489Z,11.36
2023-10-10T16:47:31.060Z,11.58
2023-10-10T16:49:57.840Z,11.38
2023-10-10T16:52:24.961Z,11.65
2023-10-10T16:54:52.499Z,11.63
2023-10-10T16:57:19.713Z,11.44
2023-10-10T16:59:47.903Z,11.28
2023-10-10T17:02:14.590Z,11.23
2023-10-10T17:04:41.403Z,11.20
2023-10-10T17:07:08.189Z,11.28
2023-10-10T17:09:34.949Z,11.28
2023-10-10T17:12:01.713Z,11.52
2023-10-10T17:14:28.463Z,11.44
2023-10-10T17:17:00.413Z,11.18
2023-10-10T17:19:27.398Z,11.13
2023-10-10T17:21:54.311Z,11.13
2023-10-10T17:24:21.038Z,11.11
2023-10-10T17:26:49.680Z,11.04
2023-10-10T17:29:16.773Z,10.90
2023-10-10T17:31:43.899Z,10.94
2023-10-10T17:34:12.174Z,10.86
2023-10-10T17:36:40.999Z,10.83
2023-10-10T17:39:08.367Z,10.83
2023-10-10T17:41:35.172Z,10.77
2023-10-10T17:44:04.883Z,10.84
2023-10-10T17:46:31.718Z,10.97
2023-10-10T17:48:58.655Z,10.93
2023-10-10T17:51:28.353Z,10.74
2023-10-10T17:53:58.238Z,10.66
2023-10-10T17:56:30.402Z,10.62
2023-10-10T17:58:57.246Z,10.53
2023-10-10T18:01:26.819Z,10.46
2023-10-10T18:03:57.052Z,10.45
2023-10-10T18:06:29.565Z,10.36
2023-10-10T18:08:56.824Z,10.38
2023-10-10T18:11:23.723Z,10.39
2023-10-10T18:13:50.924Z,10.39
2023-10-10T18:16:21.786Z,10.35
2023-10-10T18:18:48.750Z,10.28
2023-10-10T18:21:15.642Z,10.29
2023-10-10T18:23:45.603Z,10.29
2023-10-10T18:26:12.413Z,10.31
2023-10-10T18:28:39.184Z,10.39
2023-10-10T18:31:06.719Z,10.39
2023-10-10T18:33:36.469Z,10.45
2023-10-10T18:36:06.669Z,10.53
2023-10-10T18:38:33.511Z,10.63
2023-10-10T18:41:01.757Z,10.70
2023-10-10T18:43:29.705Z,10.87
2023-10-10T18:45:56.590Z,10.94
2023-10-10T18:48:26.808Z,11.06
2023-10-10T18:50:53.693Z,11.11
2023-10-10T18:53:20.462Z,11.10
2023-10-10T18:55:47.214Z,11.20
2023-10-10T18:58:15.436Z,11.15
2023-10-10T19:00:42.302Z,11.13
2023-10-10T19:03:09.316Z,11.38
2023-10-10T19:05:36.289Z,11.45
2023-10-10T19:08:03.176Z,11.50
2023-10-10T19:10:29.947Z,11.52
2023-10-10T19:12:56.804Z,11.61
2023-10-10T19:15:25.438Z,11.63
2023-10-10T19:17:52.887Z,11.68
2023-10-10T19:20:23.294Z,11.79
2023-10-10T19:22:50.029Z,11.80
2023-10-10T19:25:18.666Z,11.85
2023-10-10T19:27:47.995Z,11.89
2023-10-10T19:30:14.804Z,11.87
2023-10-10T19:32:45.823Z,11.80
2023-10-10T19:35:16.138Z,11.79
2023-10-10T19:37:42.958Z,11.85
2023-10-10T19:40:10.843Z,11.63
2023-10-10T19:42:37.704Z,11.62
2023-10-10T19:45:18.705Z,11.52
2023-10-10T19:47:53.088Z,11.58
2023-10-10T19:50:20.042Z,11.51
2023-10-10T19:52:46.803Z,11.45
2023-10-10T19:55:21.997Z,11.39
2023-10-10T19:57:49.449Z,11.42
2023-10-10T20:00:16.479Z,11.42
2023-10-10T20:02:43.477Z,11.42
2023-10-10T20:05:12.099Z,11.34
2023-10-10T20:07:40.908Z,11.34
2023-10-10T20:10:10.472Z,11.35
2023-10-10T20:12:37.329Z,11.24
2023-10-10T20:15:05.008Z,11.31
2023-10-10T20:17:31.831Z,11.35
2023-10-10T20:19:58.792Z,11.24
2023-10-10T20:22:27.081Z,11.28
2023-10-10T20:24:53.797Z,11.32
2023-10-10T20:27:20.520Z,11.41
2023-10-10T20:29:47.273Z,11.31
2023-10-10T20:32:14.060Z,11.34
2023-10-10T20:34:40.795Z,11.38
2023-10-10T20:37:07.590Z,11.42
2023-10-10T20:39:35.663Z,11.28
2023-10-10T20:42:02.441Z,11.18
2023-10-10T20:44:29.305Z,11.10
2023-10-10T20:46:56.091Z,11.06
2023-10-10T20:49:22.849Z,11.04
2023-10-10T20:51:49.527Z,11.03
2023-10-10T20:54:16.247Z,11.01
2023-10-10T20:56:44.504Z,11.10
2023-10-10T20:59:11.416Z,11.14
2023-10-10T21:01:38.178Z,11.20
2023-10-10T21:04:05.235Z,11.23
2023-10-10T21:06:32.183Z,11.20
2023-10-10T21:08:59.011Z,11.24
2023-10-10T21:11:25.873Z,11.27
2023-10-10T21:13:54.037Z,11.31
2023-10-10T21:16:20.849Z,11.34
2023-10-10T21:18:47.700Z,11.50
2023-10-10T21:21:14.641Z,11.54
2023-10-10T21:23:41.445Z,11.46
2023-10-10T21:26:11.517Z,11.39
2023-10-10T21:28:38.224Z,11.34
2023-10-10T21:31:08.867Z,11.30
2023-10-10T21:33:35.704Z,11.28
2023-10-10T21:36:02.562Z,11.18
2023-10-10T21:38:29.379Z,11.06
2023-10-10T21:41:01.593Z,10.92
2023-10-10T21:43:28.643Z,10.72
2023-10-10T21:45:55.588Z,10.65
2023-10-10T21:48:23.870Z,10.66
2023-10-10T21:50:50.619Z,10.69
2023-10-10T21:53:17.375Z,10.48
2023-10-10T21:55:44.113Z,10.52
2023-10-10T21:58:10.862Z,10.49
2023-10-10T22:00:37.593Z,10.32
2023-10-10T22:03:05.774Z,10.19
2023-10-10T22:05:34.644Z,10.18
2023-10-10T22:08:01.537Z,10.07
2023-10-10T22:10:29.409Z,10.01
2023-10-10T22:12:56.182Z,9.97
2023-10-10T22:15:23.052Z,9.81
2023-10-10T22:17:50.657Z,9.84
2023-10-10T22:20:19.580Z,9.70
2023-10-10T22:22:47.756Z,9.60
2023-10-10T22:25:14.566Z,9.50
2023-10-10T22:27:41.293Z,9.43
2023-10-10T22:30:09.339Z,9.61
2023-10-10T22:32:36.153Z,9.71
2023-10-10T22:35:03.069Z,9.67
2023-10-10T22:37:29.792Z,9.71
2023-10-10T22:39:58.015Z,9.80
2023-10-10T22:42:24.692Z,9.81
2023-10-10T22:44:51.484Z,9.93
2023-10-10T22:47:18.212Z,9.84
2023-10-10T22:49:45.852Z,9.88
2023-10-10T22:52:12.600Z,9.83
2023-10-10T22:54:39.321Z,9.86
2023-10-10T22:57:07.415Z,9.87
2023-10-10T22:59:34.313Z,9.95
2023-10-10T23:02:01.138Z,10.07
2023-10-10T23:04:28.136Z,10.19
2023-10-10T23:06:54.969Z,10.32
2023-10-10T23:09:21.692Z,10.55
2023-10-10T23:11:48.496Z,10.57
2023-10-10T23:14:16.624Z,10.72
2023-10-10T23:16:43.347Z,10.79
2023-10-10T23:19:10.167Z,10.79
2023-10-10T23:21:36.898Z,10.77
2023-10-10T23:24:03.961Z,10.72
2023-10-10T23:26:30.780Z,10.74
2023-10-10T23:28:57.493Z,10.72
2023-10-10T23:31:25.600Z,10.74
2023-10-10T23:33:52.357Z,10.77
2023-10-10T23:36:19.247Z,10.81
2023-10-10T23:38:46.035Z,10.79
2023-10-10T23:41:12.769Z,10.84
2023-10-10T23:43:39.494Z,11.00
2023-10-10T23:46:06.284Z,11.20
2023-10-10T23:48:34.576Z,11.11
2023-10-10T23:51:01.430Z,11.28
2023-10-10T23:53:28.307Z,11.24
2023-10-10T23:55:55.212Z,11.32
2023-10-10T23:58:22.027Z,11.41
